MDT,Max TemperatureF,Mean TemperatureF,Min TemperatureF,Max Dew PointF,MeanDew PointF,Min DewpointF,Max Humidity, Mean Humidity, Min Humidity, Max Sea Level PressureIn, Mean Sea Level PressureIn, Min Sea Level PressureIn, Max VisibilityMiles, Mean VisibilityMiles, Min VisibilityMiles, Max Wind SpeedMPH, Mean Wind SpeedMPH, Max Gust SpeedMPH,PrecipitationIn, CloudCover, Events, WindDirDegrees
2013-9-1,87,54,22,52,44,24,96,58,19,30.08,29.91,29.42,15,10,9,17,6,21,0.00,0,,144
2013-9-2,91,54,18,52,42,16,95,49,12,29.88,29.80,29.55,15,10,9,17,6,26,0.00,5,,295
2013-9-3,82,49,16,52,44,19,95,42,23,30.03,29.92,29.54,15,10,9,17,9,28,0.00,7,Rain,48
2013-9-4,89,55,21,55,48,21,98,55,24,30.06,29.95,29.44,15,11,6,8,4,,0.00,5,Rain,199
2013-9-5,95,57,19,57,47,18,92,53,17,30.01,29.89,29.40,15,10,9,37,10,22,0.00,2,,146
2013-9-6,82,49,16,61,51,14,94,61,30,30.16,29.95,29.53,15,10,8,34,13,24,0.01,6,Rain-Thunderstorm,9
2013-9-7,71,42,13,63,55,15,96,89,73,30.19,30.09,29.65,15,10,5,25,11,32,0.00,8,Rain,61
2013-9-8,60,42,23,63,55,23,100,91,73,30.06,29.94,29.85,15,11,6,21,7,23,0.00,7,Rain-Thunderstorm,189
2013-9-9,80,48,15,61,53,18,100,81,28,30.13,29.87,29.80,15,9,3,14,5,18,0.00,6,Rain,222
2013-9-10,78,44,9,55,45,9,96,65,26,30.10,30.02,29.93,9,9,9,21,4,,0.00,1,,59
2013-9-11,77,48,19,54,43,20,100,67,27,30.30,30.19,29.82,9,9,9,28,9,,0.00,0,,65
2013-9-12,82,51,20,52,44,20,100,61,23,30.27,30.14,29.89,9,9,9,21,7,,0.00,0,,97
2013-9-13,86,49,12,54,47,13,92,59,27,29.97,29.84,29.75,15,10,9,16,7,,0.00,2,,237
2013-9-14,73,64,55,54,45,39,88,53,29,30.17,30.06,29.83,15,12,9,14,9,20,0.00,0,,48
2013-9-15,80,63,46,54,45,39,81,54,28,30.16,30.06,29.83,15,10,9,17,7,26,0.00,1,,108
2013-9-16,86,48,10,54,47,8,91,51,23,30.22,29.71,29.57,15,10,9,18,11,29,0.00,1,,196
2013-9-17,73,46,20,48,41,19,95,58,28,29.99,29.71,29.62,15,10,9,23,11,18,0.00,3,,184
2013-9-18,48,32,17,54,46,18,100,89,52,30.05,29.78,29.60,15,8,3,22,13,31,0.00,8,Rain-Thunderstorm,23
2013-9-19,64,40,15,48,38,14,97,72,30,30.15,30.07,29.95,15,10,9,12,7,,0.00,3,,213
2013-9-20,77,42,8,41,37,18,95,50,22,30.02,29.85,29.64,15,10,9,16,9,22,0.00,0,,184
2013-9-21,71,40,10,46,38,10,94,57,26,30.12,29.62,29.47,9,9,9,14,8,18,0.00,5,,207
2013-9-22,68,35,2,45,37,-1,91,57,33,30.18,29.62,29.49,15,10,9,24,10,41,0.00,5,Rain,221
2013-9-23,64,31,-2,41,33,-1,89,56,28,30.19,29.70,29.53,15,10,9,31,14,39,0.00,1,,223
2013-9-24,59,34,10,45,34,11,94,62,32,30.25,29.84,29.75,15,12,9,15,10,22,0.00,4,Rain,216
2013-9-25,50,30,11,46,41,10,93,84,71,30.29,29.89,29.75,15,12,2,17,5,20,0.00,7,Rain,36
2013-9-26,53,29,5,41,30,3,90,70,41,30.25,30.00,29.92,15,10,9,23,12,29,0.00,6,,315
2013-9-27,59,31,3,34,29,6,100,68,27,30.07,29.87,29.72,15,10,9,23,11,26,0.03,2,,218
2013-9-28,66,42,17,41,34,19,100,63,30,30.13,29.73,29.44,15,10,9,23,13,32,0.00,4,,207
2013-9-29,60,36,11,41,33,13,92,49,26,30.03,29.45,29.27,15,10,9,34,18,50,0.00,4,,220
2013-9-30,62,38,14,37,29,14,99,58,22,29.87,29.47,29.28,15,10,9,43,15,59,0.00,3,,226